sensor_id;sensor_type;location;lat;lon;timestamp;pressure;altitude;pressure_sealevel;temperature;humidity
71964;BME280;59834;52.124;5.422;2023-06-01T00:00:46;102504.25;;;11.49;82.95
71964;BME280;59834;52.124;5.422;2023-06-01T00:03:15;102500.78;;;11.49;82.82
71964;BME280;59834;52.124;5.422;2023-06-01T00:06:07;102504.34;;;11.48;82.88
71964;BME280;59834;52.124;5.422;2023-06-01T00:08:34;102498.47;;;11.41;82.98
71964;BME280;59834;52.124;5.422;2023-06-01T00:11:03;102495.91;;;11.40;83.46
71964;BME280;59834;52.124;5.422;2023-06-01T00:13:30;102494.22;;;11.39;83.98
71964;BME280;59834;52.124;5.422;2023-06-01T00:16:02;102499.56;;;11.36;83.48
71964;BME280;59834;52.124;5.422;2023-06-01T00:18:31;102488.97;;;11.39;83.74
71964;BME280;59834;52.124;5.422;2023-06-01T00:20:59;102495.06;;;11.39;83.74
71964;BME280;59834;52.124;5.422;2023-06-01T00:23:29;102493.38;;;11.38;84.07
71964;BME280;59834;52.124;5.422;2023-06-01T00:25:58;102491.47;;;11.42;83.94
71964;BME280;59834;52.124;5.422;2023-06-01T00:28:29;102491.59;;;11.39;83.51
71964;BME280;59834;52.124;5.422;2023-06-01T00:30:56;102491.81;;;11.32;84.13
71964;BME280;59834;52.124;5.422;2023-06-01T00:33:27;102490.94;;;11.33;84.29
71964;BME280;59834;52.124;5.422;2023-06-01T00:35:54;102484.78;;;11.35;83.49
71964;BME280;59834;52.124;5.422;2023-06-01T00:38:23;102489.09;;;11.36;84.11
71964;BME280;59834;52.124;5.422;2023-06-01T00:40:51;102486.34;;;11.39;83.94
71964;BME280;59834;52.124;5.422;2023-06-01T00:43:18;102489.81;;;11.39;83.32
71964;BME280;59834;52.124;5.422;2023-06-01T00:45:55;102493.47;;;11.35;83.64
71964;BME280;59834;52.124;5.422;2023-06-01T00:48:22;102488.16;;;11.37;83.55
71964;BME280;59834;52.124;5.422;2023-06-01T00:50:51;102487.38;;;11.35;83.49
71964;BME280;59834;52.124;5.422;2023-06-01T00:53:19;102489.22;;;11.32;84.11
71964;BME280;59834;52.124;5.422;2023-06-01T00:55:49;102488.38;;;11.32;83.85
71964;BME280;59834;52.124;5.422;2023-06-01T00:58:17;102495.38;;;11.31;83.34
71964;BME280;59834;52.124;5.422;2023-06-01T01:00:55;102489.22;;;11.32;84.17
71964;BME280;59834;52.124;5.422;2023-06-01T01:03:23;102485.00;;;11.28;83.99
71964;BME280;59834;52.124;5.422;2023-06-01T01:06:06;102489.31;;;11.29;84.26
71964;BME280;59834;52.124;5.422;2023-06-01T01:08:48;102481.53;;;11.28;84.10
71964;BME280;59834;52.124;5.422;2023-06-01T01:11:26;102488.59;;;11.26;83.94
71964;BME280;59834;52.124;5.422;2023-06-01T01:14:00;102490.31;;;11.27;84.19
71964;BME280;59834;52.124;5.422;2023-06-01T01:22:36;102486.06;;;11.24;84.83
71964;BME280;59834;52.124;5.422;2023-06-01T01:25:35;102488.00;;;11.19;84.92
71964;BME280;59834;52.124;5.422;2023-06-01T01:28:21;102487.09;;;11.20;84.56
71964;BME280;59834;52.124;5.422;2023-06-01T01:30:54;102485.31;;;11.21;85.01
71964;BME280;59834;52.124;5.422;2023-06-01T01:33:22;102479.13;;;11.23;85.17
71964;BME280;59834;52.124;5.422;2023-06-01T01:35:51;102485.13;;;11.25;85.07
71964;BME280;59834;52.124;5.422;2023-06-01T01:38:20;102490.38;;;11.25;85.29
71964;BME280;59834;52.124;5.422;2023-06-01T01:40:48;102484.53;;;11.19;84.67
71964;BME280;59834;52.124;5.422;2023-06-01T01:43:20;102488.19;;;11.15;84.80
71964;BME280;59834;52.124;5.422;2023-06-01T01:46:03;102488.22;;;11.13;85.03
71964;BME280;59834;52.124;5.422;2023-06-01T01:48:36;102490.19;;;11.08;84.54
71964;BME280;59834;52.124;5.422;2023-06-01T01:51:16;102492.75;;;11.09;85.06
71964;BME280;59834;52.124;5.422;2023-06-01T01:53:48;102490.19;;;11.08;84.63
71964;BME280;59834;52.124;5.422;2023-06-01T01:56:18;102480.63;;;11.07;84.58
71964;BME280;59834;52.124;5.422;2023-06-01T01:58:48;102485.81;;;11.08;84.82
71964;BME280;59834;52.124;5.422;2023-06-01T02:01:17;102476.97;;;11.11;85.14
71964;BME280;59834;52.124;5.422;2023-06-01T02:03:57;102473.38;;;11.14;84.58
71964;BME280;59834;52.124;5.422;2023-06-01T02:06:28;102474.22;;;11.14;85.08
71964;BME280;59834;52.124;5.422;2023-06-01T02:08:59;102479.47;;;11.14;85.21
71964;BME280;59834;52.124;5.422;2023-06-01T02:11:30;102477.91;;;11.10;84.46
71964;BME280;59834;52.124;5.422;2023-06-01T02:13:57;102477.09;;;11.08;84.62
71964;BME280;59834;52.124;5.422;2023-06-01T02:16:49;102479.13;;;11.00;84.58
71964;BME280;59834;52.124;5.422;2023-06-01T02:20:12;102473.47;;;10.89;84.35
71964;BME280;59834;52.124;5.422;2023-06-01T02:23:08;102477.31;;;10.80;84.02
71964;BME280;59834;52.124;5.422;2023-06-01T02:25:47;102476.56;;;10.76;84.29
71964;BME280;59834;52.124;5.422;2023-06-01T02:28:32;102479.19;;;10.76;84.04
71964;BME280;59834;52.124;5.422;2023-06-01T02:31:04;102471.31;;;10.76;84.55
71964;BME280;59834;52.124;5.422;2023-06-01T02:33:32;102475.81;;;10.73;84.21
71964;BME280;59834;52.124;5.422;2023-06-01T02:36:03;102475.72;;;10.76;84.77
71964;BME280;59834;52.124;5.422;2023-06-01T02:38:34;102471.28;;;10.78;84.82
71964;BME280;59834;52.124;5.422;2023-06-01T02:41:04;102472.00;;;10.81;84.61
71964;BME280;59834;52.124;5.422;2023-06-01T02:43:34;102471.16;;;10.81;84.90
71964;BME280;59834;52.124;5.422;2023-06-01T02:46:06;102468.66;;;10.78;84.67
71964;BME280;59834;52.124;5.422;2023-06-01T02:48:33;102474.56;;;10.83;84.76
71964;BME280;59834;52.124;5.422;2023-06-01T02:51:00;102470.19;;;10.83;84.90
71964;BME280;59834;52.124;5.422;2023-06-01T02:53:32;102471.09;;;10.82;85.31
71964;BME280;59834;52.124;5.422;2023-06-01T02:55:59;102471.91;;;10.84;85.45
71964;BME280;59834;52.124;5.422;2023-06-01T02:58:28;102478.16;;;10.80;84.59
71964;BME280;59834;52.124;5.422;2023-06-01T03:01:00;102470.66;;;10.71;85.42
71964;BME280;59834;52.124;5.422;2023-06-01T03:03:32;102465.59;;;10.67;84.92
71964;BME280;59834;52.124;5.422;2023-06-01T03:06:04;102470.94;;;10.64;85.67
71964;BME280;59834;52.124;5.422;2023-06-01T03:08:35;102460.47;;;10.64;84.84
71964;BME280;59834;52.124;5.422;2023-06-01T03:11:16;102458.88;;;10.59;84.76
71964;BME280;59834;52.124;5.422;2023-06-01T03:13:56;102457.13;;;10.60;84.74
71964;BME280;59834;52.124;5.422;2023-06-01T03:16:28;102455.34;;;10.60;84.56
71964;BME280;59834;52.124;5.422;2023-06-01T03:18:55;102463.22;;;10.60;85.19
71964;BME280;59834;52.124;5.422;2023-06-01T03:21:25;102457.13;;;10.60;84.38
71964;BME280;59834;52.124;5.422;2023-06-01T03:23:54;102456.25;;;10.59;85.47
71964;BME280;59834;52.124;5.422;2023-06-01T03:26:21;102465.84;;;10.60;85.41
71964;BME280;59834;52.124;5.422;2023-06-01T03:28:50;102465.88;;;10.59;85.17
71964;BME280;59834;52.124;5.422;2023-06-01T03:31:17;102460.75;;;10.56;84.89
71964;BME280;59834;52.124;5.422;2023-06-01T03:33:52;102464.16;;;10.58;85.22
71964;BME280;59834;52.124;5.422;2023-06-01T03:36:32;102453.69;;;10.58;84.55
71964;BME280;59834;52.124;5.422;2023-06-01T03:39:03;102460.63;;;10.59;84.19
71964;BME280;59834;52.124;5.422;2023-06-01T03:42:02;102457.25;;;10.57;85.03
71964;BME280;59834;52.124;5.422;2023-06-01T03:44:43;102458.09;;;10.57;85.06
71964;BME280;59834;52.124;5.422;2023-06-01T03:52:00;102457.06;;;10.61;84.60
71964;BME280;59834;52.124;5.422;2023-06-01T03:55:53;102465.75;;;10.62;84.49
71964;BME280;59834;52.124;5.422;2023-06-01T04:02:50;102463.59;;;10.73;84.40
71964;BME280;59834;52.124;5.422;2023-06-01T04:09:37;102457.44;;;10.74;84.10
71964;BME280;59834;52.124;5.422;2023-06-01T04:12:56;102456.41;;;10.78;84.60
71964;BME280;59834;52.124;5.422;2023-06-01T04:16:02;102451.06;;;10.81;84.83
71964;BME280;59834;52.124;5.422;2023-06-01T04:18:54;102457.16;;;10.82;84.99
71964;BME280;59834;52.124;5.422;2023-06-01T04:22:04;102462.25;;;10.85;84.72
71964;BME280;59834;52.124;5.422;2023-06-01T04:25:29;102462.22;;;10.87;85.02
71964;BME280;59834;52.124;5.422;2023-06-01T04:28:31;102457.88;;;10.85;84.44
71964;BME280;59834;52.124;5.422;2023-06-01T04:31:03;102450.03;;;10.85;83.94
71964;BME280;59834;52.124;5.422;2023-06-01T04:34:03;102454.47;;;10.83;83.74
71964;BME280;59834;52.124;5.422;2023-06-01T04:36:33;102459.72;;;10.83;83.80
71964;BME280;59834;52.124;5.422;2023-06-01T04:39:34;102468.44;;;10.84;83.59
71964;BME280;59834;52.124;5.422;2023-06-01T04:42:27;102464.16;;;10.81;83.52
71964;BME280;59834;52.124;5.422;2023-06-01T04:44:57;102464.25;;;10.78;83.82
71964;BME280;59834;52.124;5.422;2023-06-01T04:47:55;102462.69;;;10.74;84.00
71964;BME280;59834;52.124;5.422;2023-06-01T04:50:46;102465.41;;;10.71;84.24
71964;BME280;59834;52.124;5.422;2023-06-01T04:53:47;102467.84;;;10.76;84.17
71964;BME280;59834;52.124;5.422;2023-06-01T05:01:23;102468.34;;;10.85;83.74
71964;BME280;59834;52.124;5.422;2023-06-01T05:04:26;102469.09;;;10.89;83.09
71964;BME280;59834;52.124;5.422;2023-06-01T05:39:44;102470.97;;;11.29;82.74
71964;BME280;59834;52.124;5.422;2023-06-01T05:42:12;102475.31;;;11.30;82.02
71964;BME280;59834;52.124;5.422;2023-06-01T05:44:43;102475.94;;;11.37;82.37
71964;BME280;59834;52.124;5.422;2023-06-01T05:51:19;102479.75;;;11.28;81.72
71964;BME280;59834;52.124;5.422;2023-06-01T06:06:06;102485.41;;;11.40;81.50
71964;BME280;59834;52.124;5.422;2023-06-01T06:08:56;102486.22;;;11.42;80.46
71964;BME280;59834;52.124;5.422;2023-06-01T06:11:42;102484.44;;;11.42;81.40
71964;BME280;59834;52.124;5.422;2023-06-01T06:50:36;102485.38;;;12.43;75.90
71964;BME280;59834;52.124;5.422;2023-06-01T06:53:04;102484.66;;;12.40;75.37
71964;BME280;59834;52.124;5.422;2023-06-01T06:55:31;102487.56;;;12.34;75.33
71964;BME280;59834;52.124;5.422;2023-06-01T06:57:59;102492.16;;;12.49;75.46
71964;BME280;59834;52.124;5.422;2023-06-01T07:00:29;102485.53;;;12.97;73.37
71964;BME280;59834;52.124;5.422;2023-06-01T07:03:00;102489.03;;;12.79;74.04
71964;BME280;59834;52.124;5.422;2023-06-01T07:05:40;102499.59;;;12.96;74.70
71964;BME280;59834;52.124;5.422;2023-06-01T07:08:08;102492.50;;;12.98;73.17
71964;BME280;59834;52.124;5.422;2023-06-01T07:10:52;102499.31;;;13.02;73.74
71964;BME280;59834;52.124;5.422;2023-06-01T07:13:23;102494.91;;;13.21;73.49
71964;BME280;59834;52.124;5.422;2023-06-01T07:16:05;102491.25;;;13.43;72.66
71964;BME280;59834;52.124;5.422;2023-06-01T07:38:21;102485.97;;;13.43;71.17
71964;BME280;59834;52.124;5.422;2023-06-01T07:41:37;102482.00;;;13.34;71.38
71964;BME280;59834;52.124;5.422;2023-06-01T07:52:32;102485.22;;;13.76;69.70
71964;BME280;59834;52.124;5.422;2023-06-01T08:23:05;102467.69;;;14.76;67.04
71964;BME280;59834;52.124;5.422;2023-06-01T08:25:50;102466.28;;;14.69;66.60
71964;BME280;59834;52.124;5.422;2023-06-01T08:28:20;102465.69;;;14.95;65.50
71964;BME280;59834;52.124;5.422;2023-06-01T08:30:48;102460.84;;;15.19;64.34
71964;BME280;59834;52.124;5.422;2023-06-01T08:33:17;102463.03;;;15.27;64.72
71964;BME280;59834;52.124;5.422;2023-06-01T08:35:54;102452.69;;;15.08;65.30
71964;BME280;59834;52.124;5.422;2023-06-01T08:38:24;102457.28;;;15.04;65.39
71964;BME280;59834;52.124;5.422;2023-06-01T08:41:03;102450.03;;;15.54;63.81
71964;BME280;59834;52.124;5.422;2023-06-01T08:43:32;102461.47;;;15.39;64.22
71964;BME280;59834;52.124;5.422;2023-06-01T08:46:28;102461.88;;;15.17;65.28
71964;BME280;59834;52.124;5.422;2023-06-01T08:49:04;102462.47;;;15.06;65.39
71964;BME280;59834;52.124;5.422;2023-06-01T08:51:36;102450.97;;;15.23;64.83
71964;BME280;59834;52.124;5.422;2023-06-01T08:54:13;102453.16;;;15.30;65.12
71964;BME280;59834;52.124;5.422;2023-06-01T08:57:10;102455.63;;;15.18;65.01
71964;BME280;59834;52.124;5.422;2023-06-01T08:59:38;102457.25;;;15.20;65.46
71964;BME280;59834;52.124;5.422;2023-06-01T09:02:06;102447.94;;;15.75;63.13
71964;BME280;59834;52.124;5.422;2023-06-01T09:04:49;102442.75;;;15.43;63.67
71964;BME280;59834;52.124;5.422;2023-06-01T09:19:21;102436.25;;;16.36;61.28
71964;BME280;59834;52.124;5.422;2023-06-01T09:22:20;102446.25;;;15.74;62.41
71964;BME280;59834;52.124;5.422;2023-06-01T09:24:57;102440.47;;;15.67;62.87
71964;BME280;59834;52.124;5.422;2023-06-01T09:27:27;102440.00;;;15.89;62.33
71964;BME280;59834;52.124;5.422;2023-06-01T09:29:57;102430.59;;;15.99;62.08
71964;BME280;59834;52.124;5.422;2023-06-01T09:32:31;102429.47;;;16.18;61.43
71964;BME280;59834;52.124;5.422;2023-06-01T09:34:58;102420.50;;;16.06;61.19
71964;BME280;59834;52.124;5.422;2023-06-01T09:37:25;102421.19;;;16.10;62.24
71964;BME280;59834;52.124;5.422;2023-06-01T09:39:53;102413.06;;;16.27;62.01
71964;BME280;59834;52.124;5.422;2023-06-01T09:42:36;102421.28;;;16.08;61.37
71964;BME280;59834;52.124;5.422;2023-06-01T09:45:22;102416.28;;;16.18;61.63
71964;BME280;59834;52.124;5.422;2023-06-01T09:47:52;102409.66;;;16.25;61.07
71964;BME280;59834;52.124;5.422;2023-06-01T09:50:36;102415.78;;;16.25;61.66
71964;BME280;59834;52.124;5.422;2023-06-01T09:53:04;102420.59;;;16.19;62.02
71964;BME280;59834;52.124;5.422;2023-06-01T09:55:37;102416.16;;;16.05;61.59
71964;BME280;59834;52.124;5.422;2023-06-01T09:58:46;102412.84;;;16.44;61.21
71964;BME280;59834;52.124;5.422;2023-06-01T10:01:13;102428.47;;;16.62;60.36
71964;BME280;59834;52.124;5.422;2023-06-01T10:03:42;102416.59;;;16.55;60.09
71964;BME280;59834;52.124;5.422;2023-06-01T10:06:12;102400.97;;;16.79;59.91
71964;BME280;59834;52.124;5.422;2023-06-01T10:08:41;102405.00;;;16.57;59.07
71964;BME280;59834;52.124;5.422;2023-06-01T10:11:09;102400.28;;;16.89;59.01
71964;BME280;59834;52.124;5.422;2023-06-01T10:13:37;102406.78;;;16.98;57.52
71964;BME280;59834;52.124;5.422;2023-06-01T10:16:07;102405.78;;;16.72;58.36
71964;BME280;59834;52.124;5.422;2023-06-01T10:18:36;102398.97;;;16.82;58.34
71964;BME280;59834;52.124;5.422;2023-06-01T10:24:07;102409.03;;;16.77;58.55
71964;BME280;59834;52.124;5.422;2023-06-01T10:27:08;102417.91;;;16.62;58.69
71964;BME280;59834;52.124;5.422;2023-06-01T10:29:44;102405.91;;;16.70;58.04
71964;BME280;59834;52.124;5.422;2023-06-01T10:32:45;102412.22;;;16.82;58.26
71964;BME280;59834;52.124;5.422;2023-06-01T10:40:46;102403.28;;;16.56;59.26
71964;BME280;59834;52.124;5.422;2023-06-01T10:48:58;102397.59;;;17.04;59.47
71964;BME280;59834;52.124;5.422;2023-06-01T10:51:29;102389.09;;;17.38;58.93
71964;BME280;59834;52.124;5.422;2023-06-01T10:54:23;102399.31;;;17.30;57.46
71964;BME280;59834;52.124;5.422;2023-06-01T10:57:20;102396.69;;;17.30;57.68
71964;BME280;59834;52.124;5.422;2023-06-01T11:02:51;102398.00;;;16.98;57.47
71964;BME280;59834;52.124;5.422;2023-06-01T11:13:18;102384.84;;;17.36;57.30
71964;BME280;59834;52.124;5.422;2023-06-01T11:19:02;102386.19;;;17.16;58.61
71964;BME280;59834;52.124;5.422;2023-06-01T11:21:38;102388.41;;;17.22;57.34
71964;BME280;59834;52.124;5.422;2023-06-01T11:40:15;102372.66;;;18.23;55.41
71964;BME280;59834;52.124;5.422;2023-06-01T11:49:49;102378.09;;;18.08;57.84
71964;BME280;59834;52.124;5.422;2023-06-01T11:52:29;102377.13;;;17.97;58.84
71964;BME280;59834;52.124;5.422;2023-06-01T11:58:25;102380.72;;;18.58;56.89
71964;BME280;59834;52.124;5.422;2023-06-01T12:01:13;102373.31;;;17.75;58.64
71964;BME280;59834;52.124;5.422;2023-06-01T12:03:46;102376.91;;;17.49;60.80
71964;BME280;59834;52.124;5.422;2023-06-01T12:06:25;102379.88;;;17.57;60.14
71964;BME280;59834;52.124;5.422;2023-06-01T12:09:23;102374.69;;;17.42;60.46
71964;BME280;59834;52.124;5.422;2023-06-01T12:12:16;102390.38;;;17.06;60.14
71964;BME280;59834;52.124;5.422;2023-06-01T12:14:44;102386.84;;;16.92;61.59
71964;BME280;59834;52.124;5.422;2023-06-01T13:00:11;102402.84;;;16.35;64.47
71964;BME280;59834;52.124;5.422;2023-06-01T13:03:49;102401.34;;;16.31;64.94
71964;BME280;59834;52.124;5.422;2023-06-01T13:07:06;102398.91;;;16.28;65.57
71964;BME280;59834;52.124;5.422;2023-06-01T13:09:43;102400.41;;;16.32;64.00
71964;BME280;59834;52.124;5.422;2023-06-01T13:16:30;102388.22;;;16.44;64.11
71964;BME280;59834;52.124;5.422;2023-06-01T13:26:01;102384.47;;;16.19;65.28
71964;BME280;59834;52.124;5.422;2023-06-01T13:28:41;102383.16;;;16.12;65.24
71964;BME280;59834;52.124;5.422;2023-06-01T13:31:35;102388.34;;;15.99;66.32
71964;BME280;59834;52.124;5.422;2023-06-01T13:34:28;102401.94;;;16.08;66.53
71964;BME280;59834;52.124;5.422;2023-06-01T13:37:29;102392.50;;;16.03;67.39
71964;BME280;59834;52.124;5.422;2023-06-01T13:40:06;102392.13;;;15.95;66.85
71964;BME280;59834;52.124;5.422;2023-06-01T13:42:48;102387.41;;;16.15;66.41
71964;BME280;59834;52.124;5.422;2023-06-01T13:45:37;102385.13;;;16.09;66.49
71964;BME280;59834;52.124;5.422;2023-06-01T13:48:32;102376.44;;;16.21;65.76
71964;BME280;59834;52.124;5.422;2023-06-01T13:59:20;102375.72;;;16.05;65.93
71964;BME280;59834;52.124;5.422;2023-06-01T14:06:51;102369.31;;;15.94;65.38
71964;BME280;59834;52.124;5.422;2023-06-01T14:12:57;102371.09;;;15.79;66.80
71964;BME280;59834;52.124;5.422;2023-06-01T14:15:32;102374.19;;;15.72;66.44
71964;BME280;59834;52.124;5.422;2023-06-01T14:18:00;102370.41;;;15.76;66.73
71964;BME280;59834;52.124;5.422;2023-06-01T14:24:53;102366.59;;;15.66;67.92
71964;BME280;59834;52.124;5.422;2023-06-01T14:39:15;102363.41;;;15.46;69.97
71964;BME280;59834;52.124;5.422;2023-06-01T14:41:51;102366.13;;;15.45;69.72
71964;BME280;59834;52.124;5.422;2023-06-01T14:44:54;102367.38;;;15.53;69.57
71964;BME280;59834;52.124;5.422;2023-06-01T15:00:17;102334.41;;;15.75;66.93
71964;BME280;59834;52.124;5.422;2023-06-01T15:03:13;102332.03;;;15.56;66.69
71964;BME280;59834;52.124;5.422;2023-06-01T15:06:31;102336.44;;;15.55;66.79
71964;BME280;59834;52.124;5.422;2023-06-01T15:09:46;102336.44;;;15.55;66.60
71964;BME280;59834;52.124;5.422;2023-06-01T15:13:06;102334.09;;;15.51;66.46
71964;BME280;59834;52.124;5.422;2023-06-01T15:20:16;102324.94;;;15.42;65.47
71964;BME280;59834;52.124;5.422;2023-06-01T15:24:00;102325.16;;;15.39;65.94
71964;BME280;59834;52.124;5.422;2023-06-01T15:27:34;102337.63;;;15.21;66.84
71964;BME280;59834;52.124;5.422;2023-06-01T15:38:24;102326.75;;;15.12;66.92
71964;BME280;59834;52.124;5.422;2023-06-01T15:45:43;102327.06;;;15.21;66.77
71964;BME280;59834;52.124;5.422;2023-06-01T16:04:53;102322.22;;;15.29;65.00
71964;BME280;59834;52.124;5.422;2023-06-01T16:45:48;102290.31;;;15.04;64.24
71964;BME280;59834;52.124;5.422;2023-06-01T17:04:15;102286.63;;;14.62;65.02
71964;BME280;59834;52.124;5.422;2023-06-01T17:31:11;102277.97;;;14.12;67.15
71964;BME280;59834;52.124;5.422;2023-06-01T18:30:52;102269.06;;;13.50;68.71
71964;BME280;59834;52.124;5.422;2023-06-01T18:33:33;102279.88;;;13.44;68.42
71964;BME280;59834;52.124;5.422;2023-06-01T18:36:25;102268.00;;;13.37;68.47
71964;BME280;59834;52.124;5.422;2023-06-01T19:19:42;102256.03;;;12.96;69.84
71964;BME280;59834;52.124;5.422;2023-06-01T19:38:49;102257.59;;;12.83;69.83
71964;BME280;59834;52.124;5.422;2023-06-01T19:41:30;102273.59;;;12.79;69.77
71964;BME280;59834;52.124;5.422;2023-06-01T19:44:28;102275.44;;;12.77;69.95
71964;BME280;59834;52.124;5.422;2023-06-01T20:07:32;102297.50;;;12.55;67.84
71964;BME280;59834;52.124;5.422;2023-06-01T20:14:39;102293.63;;;12.45;68.84
71964;BME280;59834;52.124;5.422;2023-06-01T20:18:03;102286.66;;;12.44;68.90
71964;BME280;59834;52.124;5.422;2023-06-01T20:20:39;102297.34;;;12.41;69.05
71964;BME280;59834;52.124;5.422;2023-06-01T20:23:45;102293.06;;;12.38;68.89
71964;BME280;59834;52.124;5.422;2023-06-01T20:26:30;102299.97;;;12.41;69.56
71964;BME280;59834;52.124;5.422;2023-06-01T20:29:23;102285.19;;;12.38;69.00
71964;BME280;59834;52.124;5.422;2023-06-01T20:31:57;102286.28;;;12.34;68.84
71964;BME280;59834;52.124;5.422;2023-06-01T20:34:45;102291.53;;;12.34;68.67
